Time;durP1;ratioP1;P1;durP2;ratioP2;P2;SDS_P1;SDS_P2;PMS_P1;PMS_P2;Temp;Humidity;BMP_temperature;BMP_pressure;BME280_temperature;BME280_humidity;BME280_pressure;Samples;Min_cycle;Max_cycle;Signal;HPM_P1;HPM_P2
2022/01/08 00:00:26;;;;;;;7.95;7.15;;;;;;;3.77;88.35;99593.50;10483258;28;20040;-69
2022/01/08 00:05:28;;;;;;;8.27;7.45;;;;;;;3.68;88.91;99581.75;10486772;28;20178;-64
2022/01/08 00:10:31;;;;;;;7.53;6.82;;;;;;;3.70;88.04;99579.03;10485917;28;20048;-65
2022/01/08 00:15:34;;;;;;;6.93;6.22;;;;;;;3.62;88.59;99573.38;10483555;28;20093;-64
2022/01/08 00:20:35;;;;;;;5.80;5.30;;;;;;;3.68;88.50;99570.38;10457916;28;20062;-65
2022/01/08 00:25:37;;;;;;;6.55;5.95;;;;;;;3.74;87.06;99567.38;10465816;28;20045;-64
2022/01/08 00:30:38;;;;;;;6.60;5.90;;;;;;;3.81;86.90;99560.75;10468585;28;20051;-64
2022/01/08 00:35:40;;;;;;;6.50;5.85;;;;;;;3.71;85.84;99546.50;10473027;28;20063;-64
2022/01/08 00:40:41;;;;;;;6.07;5.47;;;;;;;3.75;86.44;99540.06;10469652;28;20127;-64
2022/01/08 00:45:42;;;;;;;5.78;5.28;;;;;;;3.83;86.59;99534.34;10492257;28;20060;-64
2022/01/08 00:50:44;;;;;;;5.20;4.47;;;;;;;3.81;85.35;99537.06;10487295;28;20051;-64
2022/01/08 00:55:45;;;;;;;5.63;4.78;;;;;;;3.77;85.38;99514.53;10482723;28;20093;-64
2022/01/08 01:00:47;;;;;;;5.57;5.03;;;;;;;3.97;85.86;99517.66;10469115;28;20059;-65
2022/01/08 01:05:48;;;;;;;5.72;5.18;;;;;;;4.07;85.94;99514.31;10483020;28;20135;-64
2022/01/08 01:10:50;;;;;;;5.60;5.10;;;;;;;4.14;85.28;99508.66;10508090;22;20048;-62
2022/01/08 01:15:51;;;;;;;5.93;5.32;;;;;;;4.15;85.06;99503.28;10477955;28;20062;-61
2022/01/08 01:20:52;;;;;;;6.03;5.53;;;;;;;4.07;84.69;99476.63;10496980;28;20077;-60
2022/01/08 01:25:59;;;;;;;6.88;5.80;;;;;;;4.22;84.74;99498.47;10501240;27;20109;-61
2022/01/08 01:41:42;;;;;;;5.18;4.78;;;;;;;4.15;82.21;99476.94;10496178;28;20052;-60
2022/01/08 01:47:03;;;;;;;5.22;4.72;;;;;;;4.10;82.46;99471.13;10497099;27;20039;-61
2022/01/08 01:52:06;;;;;;;5.18;4.78;;;;;;;4.04;81.75;99455.75;10508348;27;20036;-61
2022/01/08 01:57:10;;;;;;;5.70;5.20;;;;;;;4.01;81.17;99466.50;10502803;28;20050;-61
2022/01/08 02:02:11;;;;;;;5.28;4.85;;;;;;;3.92;80.92;99464.44;10500247;27;20067;-61
2022/01/08 02:07:13;;;;;;;5.38;4.57;;;;;;;3.84;80.65;99455.25;10505758;27;20071;-61
2022/01/08 02:12:17;;;;;;;4.93;4.40;;;;;;;3.75;80.41;99453.22;10501155;28;20134;-60
2022/01/08 02:17:18;;;;;;;5.97;4.97;;;;;;;3.73;81.19;99452.47;10507090;27;20040;-61
2022/01/08 02:22:20;;;;;;;4.18;3.85;;;;;;;3.50;81.09;99439.00;10501386;27;20062;-61
2022/01/08 02:27:22;;;;;;;3.38;3.08;;;;;;;3.52;80.70;99437.13;10499586;28;20047;-62
2022/01/08 02:32:28;;;;;;;3.58;3.28;;;;;;;3.57;81.32;99436.81;10505869;28;20048;-62
2022/01/08 02:37:30;;;;;;;3.22;2.97;;;;;;;3.58;80.40;99442.94;10498459;28;20052;-63
2022/01/08 02:42:39;;;;;;;3.28;2.97;;;;;;;3.56;80.62;99435.16;10509072;27;20044;-61
2022/01/08 02:47:40;;;;;;;2.42;2.22;;;;;;;3.58;80.85;99432.41;10509060;27;20048;-60
2022/01/08 02:52:43;;;;;;;1.50;1.40;;;;;;;3.59;79.98;99432.31;10499978;28;20127;-60
2022/01/08 02:57:45;;;;;;;1.20;1.10;;;;;;;3.56;79.94;99429.03;10499491;27;20058;-62
2022/01/08 03:02:50;;;;;;;1.30;1.20;;;;;;;3.53;80.11;99433.56;10495948;28;20052;-60
2022/01/08 03:07:52;;;;;;;0.80;0.70;;;;;;;3.45;80.79;99438.47;10498088;28;20040;-62
2022/01/08 03:12:53;;;;;;;1.00;0.90;;;;;;;3.41;80.54;99430.84;10494798;28;20137;-59
2022/01/08 03:17:54;;;;;;;1.13;0.70;;;;;;;3.47;80.33;99448.91;10498252;27;20425;-61
2022/01/08 03:23:02;;;;;;;0.60;0.60;;;;;;;3.44;80.43;99444.69;10500866;28;20110;-61
2022/01/08 03:28:03;;;;;;;0.60;0.50;;;;;;;3.43;80.19;99429.81;10497988;28;21186;-60
2022/01/08 03:33:05;;;;;;;0.90;0.80;;;;;;;3.43;80.13;99435.09;10501473;28;20077;-62
2022/01/08 03:38:06;;;;;;;0.88;0.73;;;;;;;3.42;80.51;99433.38;10504726;28;20146;-61
2022/01/08 03:43:08;;;;;;;0.82;0.70;;;;;;;3.35;81.06;99437.38;10507621;28;20144;-61
2022/01/08 03:53:11;;;;;;;0.60;0.40;;;;;;;3.33;81.46;99455.03;10496284;28;20050;-61
2022/01/08 03:58:13;;;;;;;0.73;0.45;;;;;;;3.39;81.20;99454.63;10499799;28;20078;-61
2022/01/08 04:03:18;;;;;;;0.45;0.30;;;;;;;3.36;81.22;99453.06;10498008;28;20159;-61
2022/01/08 04:08:20;;;;;;;0.45;0.30;;;;;;;3.40;81.11;99455.50;10495148;28;20039;-61
2022/01/08 04:13:26;;;;;;;0.75;0.30;;;;;;;3.31;80.92;99447.22;10493098;28;20496;-61
2022/01/08 04:18:27;;;;;;;0.30;0.20;;;;;;;3.31;81.09;99443.75;10495614;28;20174;-60
2022/01/08 04:23:29;;;;;;;0.30;0.20;;;;;;;3.21;81.31;99455.81;10492521;28;20101;-61
2022/01/08 04:28:30;;;;;;;0.55;0.40;;;;;;;3.28;81.41;99472.91;10497875;28;20145;-61
2022/01/08 04:33:31;;;;;;;0.30;0.20;;;;;;;3.22;81.35;99483.81;10499443;28;20837;-60
2022/01/08 04:38:34;;;;;;;0.45;0.30;;;;;;;2.97;82.99;99495.81;10503335;28;20059;-60
2022/01/08 04:43:37;;;;;;;0.60;0.40;;;;;;;3.16;82.64;99512.16;10498595;28;20058;-61
2022/01/08 04:48:39;;;;;;;0.55;0.30;;;;;;;3.27;81.88;99523.81;10496364;28;20551;-60
2022/01/08 04:53:41;;;;;;;0.52;0.20;;;;;;;3.31;81.43;99535.84;10496427;28;20062;-61
2022/01/08 04:58:42;;;;;;;0.57;0.35;;;;;;;3.12;81.94;99523.81;10503489;28;20047;-61
2022/01/08 05:03:44;;;;;;;0.85;0.50;;;;;;;2.85;83.84;99555.22;10498609;28;20154;-61
2022/01/08 05:08:46;;;;;;;0.70;0.43;;;;;;;3.09;83.41;99557.34;10494080;28;20182;-61
2022/01/08 05:13:49;;;;;;;0.85;0.57;;;;;;;3.21;83.19;99585.50;10495972;28;20051;-61
2022/01/08 05:18:52;;;;;;;2.08;0.82;;;;;;;3.02;84.47;99593.69;10498641;28;20036;-60
2022/01/08 05:23:56;;;;;;;1.40;0.93;;;;;;;3.12;82.65;99597.47;10495643;28;20051;-60
2022/01/08 05:28:57;;;;;;;1.45;1.10;;;;;;;2.82;83.54;99621.13;10505210;27;20044;-60
2022/01/08 05:33:59;;;;;;;2.35;0.80;;;;;;;3.04;84.53;99623.34;10503705;28;20508;-61
2022/01/08 05:39:00;;;;;;;0.80;0.68;;;;;;;2.89;84.56;99614.59;10510458;27;20051;-60
2022/01/08 05:44:01;;;;;;;0.88;0.68;;;;;;;2.96;84.31;99620.34;10503316;27;20147;-61
2022/01/08 05:49:04;;;;;;;2.20;0.50;;;;;;;3.08;83.06;99627.50;10502063;27;20049;-60
2022/01/08 05:54:05;;;;;;;2.20;0.60;;;;;;;3.25;82.73;99655.41;10506605;27;20043;-60
2022/01/08 05:59:07;;;;;;;1.20;0.68;;;;;;;3.37;82.71;99659.09;10506171;28;20040;-60
2022/01/08 06:04:08;;;;;;;1.30;0.73;;;;;;;3.38;82.25;99658.19;10499067;27;20367;-60
2022/01/08 06:09:10;;;;;;;1.20;0.70;;;;;;;3.47;83.09;99681.28;10502202;27;20059;-61
2022/01/08 06:14:11;;;;;;;1.38;0.60;;;;;;;3.53;82.29;99666.94;10505017;28;20089;-62
2022/01/08 06:19:15;;;;;;;1.77;0.60;;;;;;;3.54;81.58;99694.91;10503669;27;20048;-61
2022/01/08 06:24:16;;;;;;;0.82;0.30;;;;;;;3.48;81.40;99696.16;10509379;27;20047;-60
2022/01/08 06:29:17;;;;;;;2.05;0.40;;;;;;;3.50;82.55;99712.69;10504438;28;20055;-60
2022/01/08 06:34:19;;;;;;;0.85;0.20;;;;;;;3.63;81.31;99719.84;10504806;27;20047;-60
2022/01/08 06:39:21;;;;;;;2.08;0.45;;;;;;;3.37;81.39;99740.66;10505948;28;20044;-60
2022/01/08 06:44:22;;;;;;;3.05;0.73;;;;;;;3.31;82.13;99725.25;10477130;28;20131;-60
2022/01/08 06:49:24;;;;;;;1.27;0.70;;;;;;;3.38;82.33;99739.75;10494923;27;20047;-61
2022/01/08 06:54:26;;;;;;;2.65;1.42;;;;;;;3.29;82.28;99745.53;10497951;28;20047;-61
2022/01/08 06:59:27;;;;;;;2.03;1.05;;;;;;;3.31;82.19;99762.06;10498914;28;20059;-60
2022/01/08 07:04:29;;;;;;;1.92;1.08;;;;;;;3.25;82.07;99780.84;10498880;28;20062;-64
2022/01/08 07:09:30;;;;;;;1.98;1.10;;;;;;;3.25;82.84;99788.75;10513687;28;20205;-64
2022/01/08 07:14:31;;;;;;;1.60;0.80;;;;;;;3.25;82.63;99800.09;10535351;28;20043;-64
2022/01/08 07:19:33;;;;;;;3.60;1.77;;;;;;;3.18;82.09;99798.75;10523941;28;20066;-64
2022/01/08 07:24:34;;;;;;;1.92;1.50;;;;;;;3.22;82.94;99813.44;10516862;28;20048;-66
2022/01/08 07:29:36;;;;;;;2.00;1.33;;;;;;;3.24;82.22;99816.81;10523325;28;20097;-64
2022/01/08 07:34:37;;;;;;;3.28;1.75;;;;;;;3.33;82.76;99823.34;10520107;28;21018;-62
2022/01/08 07:39:39;;;;;;;2.20;2.00;;;;;;;3.53;83.03;99830.94;10518438;28;20418;-64
2022/01/08 07:44:41;;;;;;;2.72;2.13;;;;;;;3.64;82.33;99837.38;10517383;28;20048;-63
2022/01/08 07:49:43;;;;;;;4.38;2.38;;;;;;;3.63;81.46;99843.56;10517305;28;20132;-64
2022/01/08 07:54:45;;;;;;;4.00;3.60;;;;;;;3.61;81.20;99850.69;10517780;28;20047;-62
2022/01/08 07:59:46;;;;;;;7.13;3.90;;;;;;;3.69;81.18;99857.22;10514812;28;20167;-64
2022/01/08 08:04:47;;;;;;;6.15;4.22;;;;;;;3.75;80.59;99874.44;10517258;28;20052;-63
2022/01/08 08:09:49;;;;;;;6.30;5.20;;;;;;;3.77;80.72;99869.94;10516283;28;20096;-63
2022/01/08 08:14:50;;;;;;;9.27;6.10;;;;;;;3.85;80.53;99896.66;10512053;28;20070;-64
2022/01/08 08:19:52;;;;;;;10.73;8.25;;;;;;;3.90;80.05;99896.38;10517503;28;20196;-65
2022/01/08 08:24:53;;;;;;;10.60;8.75;;;;;;;3.88;79.24;99891.19;10512364;28;20932;-64
2022/01/08 08:29:55;;;;;;;8.80;7.90;;;;;;;3.89;79.66;99898.19;10521873;22;20068;-63
2022/01/08 08:34:56;;;;;;;10.70;8.85;;;;;;;4.00;78.64;99904.59;10475585;28;20133;-63
2022/01/08 08:39:58;;;;;;;9.45;8.50;;;;;;;3.97;78.05;99899.53;10469609;28;20041;-64
2022/01/08 08:44:59;;;;;;;8.73;7.80;;;;;;;3.97;78.28;99897.72;10437160;28;20112;-64
2022/01/08 08:50:02;;;;;;;11.32;9.25;;;;;;;4.27;77.97;99898.66;10445135;28;20048;-64
2022/01/08 08:55:05;;;;;;;10.43;8.18;;;;;;;4.36;76.35;99916.53;10468259;28;20056;-63
2022/01/08 09:00:07;;;;;;;8.07;7.05;;;;;;;4.10;76.06;99920.69;10473243;28;20048;-64
2022/01/08 09:05:09;;;;;;;10.27;6.82;;;;;;;3.98;76.57;99909.97;10475397;28;20143;-62
2022/01/08 09:10:12;;;;;;;9.63;7.45;;;;;;;4.20;76.74;99920.09;10471354;28;20745;-63
2022/01/08 09:15:15;;;;;;;9.48;6.07;;;;;;;4.22;75.66;99926.09;10475496;28;20098;-63
2022/01/08 09:20:17;;;;;;;13.18;7.50;;;;;;;4.10;76.77;99944.41;10469936;28;20080;-64
2022/01/08 09:25:19;;;;;;;7.00;6.30;;;;;;;4.11;77.18;99954.03;10471014;28;20051;-65
2022/01/08 09:30:21;;;;;;;6.88;5.70;;;;;;;4.11;76.36;99954.84;10471225;28;20080;-64
2022/01/08 09:35:25;;;;;;;8.77;6.28;;;;;;;4.08;76.95;99957.66;10448227;28;20076;-63
2022/01/08 09:40:27;;;;;;;6.90;5.83;;;;;;;4.08;76.80;99952.41;10448568;28;20100;-64
2022/01/08 09:45:28;;;;;;;11.88;6.88;;;;;;;4.14;77.10;99961.75;10473317;28;21025;-63
2022/01/08 09:50:30;;;;;;;8.02;6.70;;;;;;;3.94;77.78;99962.91;10483329;28;20757;-64
2022/01/08 09:55:31;;;;;;;9.27;6.88;;;;;;;3.98;78.01;99959.13;10474628;28;20413;-63
2022/01/08 10:00:34;;;;;;;8.52;6.38;;;;;;;3.92;79.14;99951.59;10475786;28;20103;-63
2022/01/08 10:05:47;;;;;;;8.38;5.30;;;;;;;3.97;76.95;99960.09;10493464;28;20048;-64
2022/01/08 10:11:09;;;;;;;9.85;7.40;;;;;;;4.03;78.09;99963.22;10502814;28;20047;-63
2022/01/08 10:17:13;;;;;;;11.35;6.32;;;;;;;4.32;77.09;99955.38;10488957;28;20131;-64
2022/01/08 10:21:44;;;;;;;5.28;4.78;;;;;;;4.64;74.85;99955.25;10486776;28;20105;-63
2022/01/08 10:26:49;;;;;;;7.22;4.07;;;;;;;4.46;74.86;99951.94;10492859;28;20051;-64
2022/01/08 10:31:53;;;;;;;6.65;4.10;;;;;;;4.67;74.53;99939.25;10486978;28;20057;-64
2022/01/08 10:36:54;;;;;;;6.28;3.80;;;;;;;4.45;73.69;99959.94;10481056;28;20057;-64
2022/01/08 10:41:58;;;;;;;6.22;4.10;;;;;;;4.83;74.09;99948.84;10469638;28;20056;-64
2022/01/08 10:47:13;;;;;;;5.65;4.25;;;;;;;4.91;72.56;99941.34;10468238;28;20072;-63
2022/01/08 10:52:17;;;;;;;5.53;3.63;;;;;;;5.99;68.42;99935.31;10462576;28;20083;-63
2022/01/08 10:57:30;;;;;;;7.38;4.15;;;;;;;9.41;56.68;99924.47;10468158;28;20170;-64
2022/01/08 11:02:32;;;;;;;6.18;4.20;;;;;;;9.70;53.91;99929.22;10443930;28;20610;-64
2022/01/08 11:07:36;;;;;;;7.68;4.35;;;;;;;8.98;56.28;99917.28;10465304;28;20048;-63
2022/01/08 11:12:44;;;;;;;9.75;3.70;;;;;;;12.00;49.34;99920.91;10456814;28;20101;-65
2022/01/08 11:17:57;;;;;;;6.78;3.00;;;;;;;12.05;48.07;99903.66;10451250;28;20616;-64
2022/01/08 11:23:22;;;;;;;5.03;2.90;;;;;;;14.17;41.81;99890.34;10429516;28;20052;-64
2022/01/08 11:28:34;;;;;;;6.68;4.18;;;;;;;17.05;36.11;99890.09;10425942;28;20417;-65
2022/01/08 11:33:37;;;;;;;4.85;2.67;;;;;;;17.99;36.27;99888.19;10418365;28;20113;-65
2022/01/08 11:38:43;;;;;;;6.33;2.77;;;;;;;19.32;31.86;99877.69;10449440;28;20054;-65
2022/01/08 11:43:44;;;;;;;7.68;3.55;;;;;;;16.58;34.59;99873.75;10438274;28;21261;-65
2022/01/08 11:48:49;;;;;;;6.80;6.18;;;;;;;14.30;38.46;99873.88;10439456;28;20090;-69
2022/01/08 11:53:53;;;;;;;7.05;6.35;;;;;;;11.44;44.37;99857.56;10440772;28;20056;-64
2022/01/08 11:59:04;;;;;;;8.60;7.82;;;;;;;12.38;44.92;99846.28;10449066;28;20080;-64
2022/01/08 12:04:06;;;;;;;6.90;4.95;;;;;;;13.15;42.42;99840.72;10431742;28;20114;-65
2022/01/08 12:09:08;;;;;;;16.58;15.50;;;;;;;11.39;45.37;99831.34;10421023;28;20135;-63
2022/01/08 12:14:16;;;;;;;11.48;10.68;;;;;;;11.39;45.33;99812.69;10428709;28;20062;-63
2022/01/08 12:19:28;;;;;;;13.25;12.23;;;;;;;12.22;44.42;99814.88;10438105;28;20048;-64
2022/01/08 12:24:30;;;;;;;4.68;2.92;;;;;;;16.65;36.47;99800.50;10438956;28;20724;-64
2022/01/08 12:29:35;;;;;;;4.78;2.40;;;;;;;18.41;31.36;99794.38;10445079;28;20157;-64
2022/01/08 12:34:44;;;;;;;;;;;;;;;20.35;29.92;99773.91;10469628;28;20075;-64
2022/01/08 12:39:50;;;;;;;4.05;2.63;;;;;;;21.66;27.30;99764.78;10449979;28;19928;-67
2022/01/08 12:45:10;;;;;;;4.40;1.83;;;;;;;19.03;29.89;99752.63;10446658;28;20090;-64
2022/01/08 12:50:26;;;;;;;4.00;1.80;;;;;;;13.34;38.52;99749.75;10445515;28;20055;-64
2022/01/08 12:55:27;;;;;;;4.90;2.05;;;;;;;10.46;46.50;99729.56;10451073;28;20157;-64
2022/01/08 13:00:29;;;;;;;5.22;2.30;;;;;;;10.14;48.62;99719.91;10450727;28;20621;-64
2022/01/08 13:05:33;;;;;;;5.55;3.30;;;;;;;9.01;52.23;99707.31;10448639;28;20127;-64
2022/01/08 13:10:34;;;;;;;5.10;2.58;;;;;;;7.57;56.53;99686.00;10451407;28;20735;-64
2022/01/08 13:15:35;;;;;;;6.57;3.33;;;;;;;7.13;59.04;99692.88;10448647;28;20234;-64
2022/01/08 13:20:37;;;;;;;5.55;3.10;;;;;;;6.73;60.76;99697.50;10440101;28;20049;-67
2022/01/08 13:25:39;;;;;;;6.28;4.40;;;;;;;6.35;62.46;99695.84;10462512;28;20324;-63
2022/01/08 13:30:47;;;;;;;5.28;2.95;;;;;;;6.22;62.88;99695.03;10469464;28;20035;-65
2022/01/08 13:36:01;;;;;;;6.07;3.00;;;;;;;6.03;63.89;99670.88;10470646;28;20044;-66
2022/01/08 13:41:14;;;;;;;5.47;2.60;;;;;;;5.93;63.87;99671.50;10483274;28;20048;-65
2022/01/08 13:46:16;;;;;;;3.10;2.60;;;;;;;5.83;64.49;99662.53;10484942;28;20056;-69
2022/01/08 13:51:20;;;;;;;3.35;2.05;;;;;;;5.75;64.82;99668.34;10486464;28;20553;-68
2022/01/08 13:56:27;;;;;;;6.55;2.58;;;;;;;5.64;64.56;99658.53;10489959;28;20075;-69
2022/01/08 14:01:55;;;;;;;4.07;2.60;;;;;;;5.42;66.16;99650.38;10464549;28;20060;-66
2022/01/08 14:06:59;;;;;;;5.45;2.80;;;;;;;5.20;66.75;99645.75;10480243;28;21795;-68
2022/01/08 14:12:12;;;;;;;3.27;2.87;;;;;;;5.10;66.86;99634.97;10478056;28;20056;-68
2022/01/08 14:17:15;;;;;;;4.00;2.20;;;;;;;5.01;67.96;99614.47;10471336;28;20048;-65
2022/01/08 14:22:23;;;;;;;4.90;2.50;;;;;;;5.04;67.42;99585.25;10478001;28;20149;-65
2022/01/08 14:27:24;;;;;;;4.53;1.92;;;;;;;5.07;67.86;99577.13;10454881;28;20116;-64
2022/01/08 14:32:27;;;;;;;2.90;2.05;;;;;;;5.28;67.02;99562.47;10444118;28;20054;-64
2022/01/08 14:37:37;;;;;;;4.05;2.83;;;;;;;5.22;68.02;99560.25;10441329;28;20075;-65
2022/01/08 14:42:38;;;;;;;6.97;2.55;;;;;;;5.31;67.11;99537.66;10437056;28;20048;-64
2022/01/08 14:47:42;;;;;;;3.15;1.73;;;;;;;5.25;67.93;99523.09;10442242;28;20795;-65
2022/01/08 14:52:45;;;;;;;4.10;2.72;;;;;;;5.02;68.49;99502.75;10418748;28;20039;-66
2022/01/08 14:57:47;;;;;;;7.45;2.42;;;;;;;4.89;69.31;99494.84;10444907;28;20048;-67
2022/01/08 15:02:49;;;;;;;3.35;2.58;;;;;;;4.91;69.58;99483.25;10431490;28;20151;-65
2022/01/08 15:07:51;;;;;;;5.05;1.92;;;;;;;4.86;69.76;99469.50;10437606;28;20094;-65
2022/01/08 15:12:52;;;;;;;3.28;2.15;;;;;;;4.56;70.13;99452.25;10437106;28;21427;-65
2022/01/08 15:17:54;;;;;;;4.20;1.90;;;;;;;4.48;71.65;99444.00;10438636;28;21768;-64
2022/01/08 15:23:06;;;;;;;3.88;2.03;;;;;;;4.56;71.25;99436.44;10434580;28;20049;-65
2022/01/08 15:28:07;;;;;;;4.63;2.20;;;;;;;4.46;71.50;99424.81;10445883;28;20056;-64
2022/01/08 15:33:09;;;;;;;5.95;2.65;;;;;;;4.34;72.25;99426.50;10433790;22;20516;-56
2022/01/08 15:38:10;;;;;;;4.03;1.88;;;;;;;4.30;71.98;99418.91;10469653;28;20056;-56
2022/01/08 15:43:12;;;;;;;3.42;1.80;;;;;;;4.21;72.45;99405.41;10454144;28;20688;-56
2022/01/08 15:48:13;;;;;;;3.35;1.98;;;;;;;4.11;73.45;99399.06;10451883;28;20124;-56
2022/01/08 15:53:15;;;;;;;4.28;1.77;;;;;;;3.94;74.57;99396.72;10455824;28;20051;-56
2022/01/08 15:58:16;;;;;;;4.90;2.00;;;;;;;4.01;75.27;99398.00;10456640;28;20587;-57
2022/01/08 16:03:20;;;;;;;3.97;2.28;;;;;;;3.92;76.04;99377.53;10455565;28;20143;-58
2022/01/08 16:08:24;;;;;;;3.88;1.92;;;;;;;3.85;77.35;99367.41;10462736;28;20168;-56
2022/01/08 16:13:26;;;;;;;3.43;3.10;;;;;;;3.82;77.42;99351.81;10458772;28;20062;-57
2022/01/08 16:18:27;;;;;;;4.82;2.58;;;;;;;3.62;79.25;99334.75;10462879;28;20201;-56
2022/01/08 16:23:29;;;;;;;4.07;3.00;;;;;;;3.69;79.39;99314.09;10460113;28;20284;-56
2022/01/08 16:28:30;;;;;;;4.82;3.30;;;;;;;3.57;79.67;99318.41;10463930;28;20123;-56
2022/01/08 16:33:31;;;;;;;4.75;3.10;;;;;;;3.66;80.04;99301.16;10456529;28;20052;-57
2022/01/08 16:38:33;;;;;;;4.03;2.88;;;;;;;3.63;79.39;99267.97;10463378;28;20074;-57
2022/01/08 16:43:34;;;;;;;5.57;3.00;;;;;;;3.64;79.67;99259.16;10465286;28;20626;-57
2022/01/08 16:48:36;;;;;;;4.28;3.55;;;;;;;3.76;79.01;99261.91;10453961;28;20056;-57
2022/01/08 16:53:39;;;;;;;4.65;3.63;;;;;;;3.79;79.35;99249.38;10459025;28;20135;-57
2022/01/08 16:58:41;;;;;;;6.80;4.28;;;;;;;3.75;79.01;99218.94;10457602;28;20060;-57
2022/01/08 17:03:42;;;;;;;5.32;3.47;;;;;;;3.70;78.96;99228.94;10459041;28;20040;-57
2022/01/08 17:08:46;;;;;;;4.57;2.63;;;;;;;3.70;78.89;99215.78;10456841;28;20529;-57
2022/01/08 17:13:48;;;;;;;3.92;3.63;;;;;;;3.68;78.80;99176.41;10458631;28;20089;-57
2022/01/08 17:18:49;;;;;;;3.88;2.97;;;;;;;3.82;78.55;99174.59;10465394;28;20178;-57
2022/01/08 17:23:51;;;;;;;5.65;2.75;;;;;;;3.77;77.83;99153.00;10464439;28;20650;-57
2022/01/08 17:28:56;;;;;;;3.63;2.33;;;;;;;3.87;78.31;99149.66;10469130;28;20235;-57
2022/01/08 17:33:58;;;;;;;4.03;3.00;;;;;;;3.77;78.56;99117.03;10461367;28;20294;-58
2022/01/08 17:38:59;;;;;;;6.97;2.95;;;;;;;3.93;78.27;99106.22;10464797;28;20457;-57
2022/01/08 17:44:01;;;;;;;4.78;2.47;;;;;;;3.86;77.93;99083.94;10468739;28;20435;-57
2022/01/08 17:49:02;;;;;;;5.28;2.80;;;;;;;3.97;77.66;99085.81;10466728;28;20060;-56
2022/01/08 17:54:04;;;;;;;4.00;2.50;;;;;;;3.83;77.64;99071.84;10468013;28;20134;-56
2022/01/08 17:59:06;;;;;;;4.60;3.00;;;;;;;3.92;78.06;99066.84;10465637;28;20055;-57
2022/01/08 18:04:07;;;;;;;3.25;2.17;;;;;;;3.92;77.81;99048.41;10462196;28;20136;-56
2022/01/08 18:09:09;;;;;;;4.38;3.10;;;;;;;3.83;78.01;99029.72;10463876;28;20060;-57
2022/01/08 18:14:10;;;;;;;5.32;3.30;;;;;;;3.88;78.03;99024.94;10470307;28;20201;-56
2022/01/08 18:19:11;;;;;;;5.20;3.60;;;;;;;3.86;77.57;99010.22;10466967;28;21139;-57
2022/01/08 18:24:13;;;;;;;4.03;3.30;;;;;;;3.76;78.29;98994.25;10466829;28;20048;-57
2022/01/08 18:29:14;;;;;;;4.03;3.30;;;;;;;3.71;78.53;98980.59;10464677;28;20190;-57
2022/01/08 18:34:16;;;;;;;4.75;3.58;;;;;;;3.70;78.58;98955.22;10464279;28;20050;-57
2022/01/08 18:39:17;;;;;;;5.85;4.00;;;;;;;3.80;78.61;98952.72;10464214;28;20063;-57
2022/01/08 18:44:19;;;;;;;7.07;4.40;;;;;;;3.83;78.52;98944.66;10465210;28;20496;-60
2022/01/08 18:49:20;;;;;;;6.00;4.10;;;;;;;3.95;78.14;98937.59;10464693;28;20485;-57
2022/01/08 18:54:25;;;;;;;;;;;;;;;3.88;77.15;98921.44;10468406;28;20055;-57
2022/01/08 18:59:28;;;;;;;4.85;2.90;;;;;;;3.85;78.01;98897.97;10465115;28;19968;-57
2022/01/08 19:04:29;;;;;;;4.15;2.97;;;;;;;3.89;77.92;98879.19;10469952;28;20101;-58
2022/01/08 19:09:31;;;;;;;6.22;3.63;;;;;;;3.87;78.25;98870.59;10467505;28;20067;-57
2022/01/08 19:14:34;;;;;;;5.68;3.67;;;;;;;3.63;77.92;98817.13;10461239;28;20048;-57
2022/01/08 19:19:36;;;;;;;3.72;3.03;;;;;;;3.80;77.73;98837.78;10463791;28;20051;-58
2022/01/08 19:24:37;;;;;;;4.45;2.72;;;;;;;3.85;76.81;98809.28;10460910;28;20068;-57
2022/01/08 19:29:44;;;;;;;4.03;2.42;;;;;;;3.97;76.82;98804.91;10462745;28;20437;-57
2022/01/08 19:34:47;;;;;;;5.30;2.80;;;;;;;4.07;77.74;98776.06;10455932;28;20502;-57
2022/01/08 19:39:48;;;;;;;4.35;2.70;;;;;;;4.16;77.08;98763.97;10458660;28;20892;-57
2022/01/08 19:44:50;;;;;;;3.38;2.58;;;;;;;4.12;77.21;98747.56;10458848;28;20105;-58
2022/01/08 19:49:53;;;;;;;3.40;2.40;;;;;;;3.95;77.37;98716.44;10459569;28;20162;-58
2022/01/08 19:54:57;;;;;;;5.05;3.40;;;;;;;3.88;77.90;98705.56;10470014;28;20532;-57
2022/01/08 20:00:00;;;;;;;3.25;2.58;;;;;;;3.77;77.96;98674.81;10474137;28;20094;-57
2022/01/08 20:05:03;;;;;;;3.95;2.30;;;;;;;3.93;78.61;98684.13;10451144;28;20117;-57
2022/01/08 20:10:07;;;;;;;3.75;2.25;;;;;;;4.01;77.99;98663.34;10457319;28;20051;-57
2022/01/08 20:15:08;;;;;;;5.07;3.58;;;;;;;3.96;77.84;98652.31;10463381;28;20062;-57
2022/01/08 20:20:10;;;;;;;4.53;2.97;;;;;;;3.95;77.98;98632.19;10469099;28;20110;-57
2022/01/08 20:25:15;;;;;;;4.22;2.50;;;;;;;3.97;78.60;98623.22;10458978;28;20468;-55
2022/01/08 20:30:16;;;;;;;4.25;3.50;;;;;;;3.99;78.69;98599.41;10454494;28;20579;-56
2022/01/08 20:35:18;;;;;;;3.30;3.00;;;;;;;4.00;78.67;98585.28;10457089;28;20048;-58
2022/01/08 20:40:19;;;;;;;3.58;2.97;;;;;;;4.03;78.58;98569.25;10458102;28;20077;-57
2022/01/08 20:45:21;;;;;;;3.30;2.63;;;;;;;3.96;78.85;98547.00;10461365;28;20149;-57
2022/01/08 20:50:22;;;;;;;5.43;2.83;;;;;;;3.97;79.18;98527.63;10470151;28;20052;-58
2022/01/08 20:55:26;;;;;;;3.42;2.80;;;;;;;3.92;79.93;98519.25;10470220;28;20093;-56
2022/01/08 21:00:28;;;;;;;3.97;2.55;;;;;;;3.92;80.02;98488.50;10469254;28;20129;-57
2022/01/08 21:05:29;;;;;;;3.97;2.30;;;;;;;4.00;80.09;98464.19;10466155;28;20048;-58
2022/01/08 21:10:31;;;;;;;3.75;3.17;;;;;;;4.08;80.63;98459.09;10471431;28;20415;-57
2022/01/08 21:15:32;;;;;;;4.05;2.72;;;;;;;4.10;80.22;98444.03;10464775;28;20147;-56
2022/01/08 21:20:34;;;;;;;3.58;2.45;;;;;;;4.06;80.36;98430.28;10468249;28;20595;-57
2022/01/08 21:25:37;;;;;;;3.90;2.70;;;;;;;4.03;81.11;98411.25;10473557;28;20056;-57
2022/01/08 21:30:39;;;;;;;4.68;2.78;;;;;;;4.03;81.13;98390.19;10463071;28;20159;-58
2022/01/08 21:35:43;;;;;;;4.07;2.92;;;;;;;4.00;81.43;98380.75;10468497;28;20066;-58
2022/01/08 21:40:44;;;;;;;3.92;2.53;;;;;;;3.99;81.62;98355.38;10464545;28;20060;-57
2022/01/08 21:45:46;;;;;;;3.17;2.35;;;;;;;3.94;82.28;98331.25;10472076;28;20056;-57
2022/01/08 21:50:49;;;;;;;3.15;2.30;;;;;;;3.96;82.20;98321.41;10469480;28;20131;-58
2022/01/08 21:55:50;;;;;;;6.72;2.88;;;;;;;3.93;82.32;98310.31;10465416;28;20049;-58
2022/01/08 22:00:52;;;;;;;3.72;1.95;;;;;;;3.92;82.75;98287.56;10464693;28;20100;-60
2022/01/08 22:05:53;;;;;;;2.85;2.17;;;;;;;3.92;82.88;98261.25;10467099;28;20063;-58
2022/01/08 22:10:55;;;;;;;2.70;1.73;;;;;;;3.90;83.63;98240.31;10456167;28;20922;-56
2022/01/08 22:15:56;;;;;;;4.28;1.63;;;;;;;3.97;83.49;98228.31;10461132;28;20140;-56
2022/01/08 22:20:57;;;;;;;2.50;1.95;;;;;;;3.96;83.82;98215.28;10457746;28;20478;-57
2022/01/08 22:25:59;;;;;;;9.98;5.63;;;;;;;3.93;84.33;98199.75;10459333;28;21527;-57
2022/01/08 22:31:00;;;;;;;3.25;1.92;;;;;;;3.92;84.63;98191.03;10465019;28;20413;-57
2022/01/08 22:36:02;;;;;;;3.65;1.70;;;;;;;3.76;84.41;98140.69;10463910;28;20162;-57
2022/01/08 22:41:04;;;;;;;3.65;1.95;;;;;;;4.03;84.13;98164.59;10455425;28;20105;-59
2022/01/08 22:46:05;;;;;;;3.85;2.30;;;;;;;4.04;84.57;98139.94;10467756;28;20048;-58
2022/01/08 22:51:10;;;;;;;3.67;1.35;;;;;;;3.98;84.75;98123.84;10469151;28;20209;-58
2022/01/08 22:56:12;;;;;;;2.28;1.20;;;;;;;3.96;84.75;98104.72;10467624;28;20047;-57
2022/01/08 23:01:13;;;;;;;2.78;1.30;;;;;;;3.88;85.46;98103.59;10459897;28;20163;-56
2022/01/08 23:06:17;;;;;;;4.82;1.70;;;;;;;3.86;85.77;98084.47;10460027;28;20048;-56
2022/01/08 23:11:19;;;;;;;1.67;1.15;;;;;;;3.78;86.01;98068.50;10456541;28;20044;-57
2022/01/08 23:16:20;;;;;;;3.00;1.77;;;;;;;3.95;85.40;98071.47;10462133;28;20658;-58
2022/01/08 23:21:23;;;;;;;3.35;2.97;;;;;;;3.98;85.41;98060.66;10465304;28;20139;-58
2022/01/08 23:26:25;;;;;;;2.00;1.15;;;;;;;3.97;85.85;98051.13;10440197;28;20052;-57
2022/01/08 23:31:26;;;;;;;3.58;1.83;;;;;;;4.04;85.84;98049.63;10451470;28;20052;-57
2022/01/08 23:36:29;;;;;;;2.92;1.52;;;;;;;4.01;85.79;98045.44;10456233;28;20091;-57
2022/01/08 23:41:30;;;;;;;2.20;1.40;;;;;;;3.93;86.43;98028.66;10451111;28;20762;-57
2022/01/08 23:46:31;;;;;;;2.22;1.80;;;;;;;3.84;86.40;97973.25;10453928;28;20514;-57
2022/01/08 23:51:33;;;;;;;2.42;1.67;;;;;;;4.00;86.27;97974.50;10453261;28;20604;-57
2022/01/08 23:56:35;;;;;;;2.33;2.00;;;;;;;3.98;86.06;97965.88;10451125;28;20437;-57
